createdAt,value
2023-04-29T00:01:18.340Z,20.20
2023-04-29T00:03:47.737Z,22.77
2023-04-29T00:06:16.341Z,21.77
2023-04-29T00:08:44.399Z,23.07
2023-04-29T00:11:12.458Z,19.37
2023-04-29T00:13:41.058Z,20.50
2023-04-29T00:16:10.219Z,20.43
2023-04-29T00:18:38.375Z,22.50
2023-04-29T00:21:07.743Z,20.93
2023-04-29T00:23:36.090Z,18.63
2023-04-29T00:26:04.301Z,19.67
2023-04-29T00:28:32.357Z,24.63
2023-04-29T00:31:00.691Z,23.30
2023-04-29T00:33:28.774Z,21.03
2023-04-29T00:35:57.497Z,27.27
2023-04-29T00:38:26.973Z,24.13
2023-04-29T00:40:55.054Z,26.33
2023-04-29T00:43:23.017Z,25.83
2023-04-29T00:45:51.148Z,21.20
2023-04-29T00:48:19.225Z,24.03
2023-04-29T00:50:47.691Z,20.77
2023-04-29T00:53:15.889Z,24.97
2023-04-29T00:55:45.822Z,21.37
2023-04-29T00:58:13.899Z,23.50
2023-04-29T01:00:44.093Z,24.30
2023-04-29T01:03:12.359Z,21.13
2023-04-29T01:05:40.547Z,21.63
2023-04-29T01:08:27.478Z,20.70
2023-04-29T01:11:09.072Z,23.63
2023-04-29T01:13:44.014Z,21.97
2023-04-29T01:16:19.762Z,21.80
2023-04-29T01:18:55.610Z,23.63
2023-04-29T01:21:23.873Z,22.93
2023-04-29T01:23:56.288Z,23.93
2023-04-29T01:26:24.653Z,22.73
2023-04-29T01:28:59.447Z,24.13
2023-04-29T01:31:33.717Z,21.80
2023-04-29T01:34:09.783Z,23.13
2023-04-29T01:36:48.314Z,20.90
2023-04-29T01:39:26.132Z,25.13
2023-04-29T01:42:04.707Z,24.83
2023-04-29T01:44:35.066Z,21.60
2023-04-29T01:47:03.977Z,22.73
2023-04-29T01:49:36.383Z,20.73
2023-04-29T01:52:05.258Z,20.90
2023-04-29T01:54:36.897Z,22.63
2023-04-29T01:57:05.280Z,24.60
2023-04-29T01:59:33.252Z,20.80
2023-04-29T02:02:01.233Z,23.37
2023-04-29T02:04:29.529Z,23.40
2023-04-29T02:06:57.537Z,20.13
2023-04-29T02:09:25.606Z,20.43
2023-04-29T02:11:54.949Z,18.80
2023-04-29T02:14:22.954Z,26.10
2023-04-29T02:16:51.023Z,25.87
2023-04-29T02:19:19.023Z,20.10
2023-04-29T02:21:47.117Z,21.57
2023-04-29T02:24:15.097Z,25.80
2023-04-29T02:26:43.071Z,26.80
2023-04-29T02:29:12.471Z,23.47
2023-04-29T02:31:40.489Z,25.27
2023-04-29T02:34:08.464Z,24.43
2023-04-29T02:36:36.540Z,22.93
2023-04-29T02:39:05.349Z,24.53
2023-04-29T02:41:33.402Z,20.80
2023-04-29T02:44:01.372Z,21.17
2023-04-29T02:46:32.841Z,20.33
2023-04-29T02:49:01.093Z,20.60
2023-04-29T02:51:29.125Z,20.33
2023-04-29T02:53:57.092Z,21.43
2023-04-29T02:56:25.069Z,22.03
2023-04-29T02:58:53.027Z,19.33
2023-04-29T03:01:21.560Z,21.03
2023-04-29T03:03:51.122Z,19.23
2023-04-29T03:06:19.298Z,26.63
2023-04-29T03:08:47.208Z,26.33
2023-04-29T03:11:15.181Z,24.43
2023-04-29T03:13:43.209Z,25.13
2023-04-29T03:16:11.212Z,21.43
2023-04-29T03:18:39.239Z,25.43
2023-04-29T03:21:08.600Z,21.33
2023-04-29T03:23:36.571Z,24.80
2023-04-29T03:26:04.608Z,22.30
2023-04-29T03:28:32.600Z,20.93
2023-04-29T03:31:01.029Z,18.77
2023-04-29T03:33:29.018Z,20.67
2023-04-29T03:35:57.176Z,20.63
2023-04-29T03:38:26.953Z,21.90
2023-04-29T03:40:54.969Z,20.77
2023-04-29T03:43:22.944Z,23.07
2023-04-29T03:45:51.218Z,21.30
2023-04-29T03:48:20.095Z,22.50
2023-04-29T03:50:48.598Z,22.13
2023-04-29T03:53:16.727Z,22.53
2023-04-29T03:55:46.386Z,25.97
2023-04-29T03:58:14.614Z,22.67
2023-04-29T04:00:42.599Z,25.83
2023-04-29T04:03:10.865Z,22.17
2023-04-29T04:05:38.908Z,25.40
2023-04-29T04:08:07.199Z,16.13
2023-04-29T04:10:35.162Z,21.10
2023-04-29T04:13:04.552Z,21.23
2023-04-29T04:15:32.501Z,25.17
2023-04-29T04:18:00.456Z,23.97
2023-04-29T04:20:28.486Z,20.40
2023-04-29T04:22:56.430Z,19.73
2023-04-29T04:25:24.377Z,19.63
2023-04-29T04:27:52.382Z,20.53
2023-04-29T04:30:21.790Z,22.80
2023-04-29T04:32:49.819Z,17.90
2023-04-29T04:35:18.062Z,20.97
2023-04-29T04:37:46.408Z,17.83
2023-04-29T04:40:14.956Z,21.43
2023-04-29T04:42:42.931Z,22.10
2023-04-29T04:45:11.922Z,20.23
2023-04-29T04:47:42.015Z,20.17
2023-04-29T04:50:10.682Z,19.83
2023-04-29T04:52:38.648Z,21.90
2023-04-29T04:55:07.286Z,21.23
2023-04-29T04:57:35.250Z,18.70
2023-04-29T05:00:04.277Z,21.10
2023-04-29T05:02:32.680Z,19.87
2023-04-29T05:05:02.136Z,19.90
2023-04-29T05:07:30.183Z,22.40
2023-04-29T05:09:58.738Z,16.47
2023-04-29T05:12:30.704Z,17.93
2023-04-29T05:14:59.041Z,22.60
2023-04-29T05:17:27.044Z,19.40
2023-04-29T05:19:55.039Z,19.33
2023-04-29T05:22:24.455Z,18.20
2023-04-29T05:24:54.325Z,22.37
2023-04-29T05:27:22.296Z,18.80
2023-04-29T05:29:50.369Z,20.23
2023-04-29T05:32:18.473Z,17.50
2023-04-29T05:34:46.563Z,16.77
2023-04-29T05:37:14.713Z,18.57
2023-04-29T05:39:44.039Z,16.33
2023-04-29T05:42:11.989Z,18.30
2023-04-29T05:44:40.874Z,15.63
2023-04-29T05:47:08.872Z,15.83
2023-04-29T05:49:36.865Z,14.67
2023-04-29T05:52:06.619Z,14.97
2023-04-29T05:54:35.279Z,16.57
2023-04-29T05:57:05.495Z,15.97
2023-04-29T05:59:34.179Z,16.50
2023-04-29T06:02:03.017Z,19.60
2023-04-29T06:04:31.369Z,16.80
2023-04-29T06:06:59.584Z,17.77
2023-04-29T06:09:28.390Z,16.10
2023-04-29T06:11:57.954Z,17.83
2023-04-29T06:14:27.457Z,15.40
2023-04-29T06:16:56.024Z,14.87
2023-04-29T06:19:24.980Z,18.43
2023-04-29T06:21:52.996Z,17.00
2023-04-29T06:24:20.982Z,16.60
2023-04-29T06:26:48.960Z,15.43
2023-04-29T06:29:17.071Z,15.00
2023-04-29T06:31:46.528Z,19.30
2023-04-29T06:34:14.554Z,21.00
2023-04-29T06:36:42.497Z,20.63
2023-04-29T06:39:10.569Z,20.37
2023-04-29T06:41:38.572Z,17.93
2023-04-29T06:44:06.715Z,20.73
2023-04-29T06:46:34.732Z,19.67
2023-04-29T06:49:04.093Z,15.87
2023-04-29T06:51:32.260Z,18.20
2023-04-29T06:54:00.216Z,16.23
2023-04-29T06:56:28.201Z,19.37
2023-04-29T06:58:56.181Z,19.43
2023-04-29T07:01:24.231Z,17.77
2023-04-29T07:03:52.506Z,21.50
2023-04-29T07:06:21.987Z,19.20
2023-04-29T07:08:50.281Z,16.03
2023-04-29T07:11:18.254Z,18.53
2023-04-29T07:13:46.292Z,16.27
2023-04-29T07:16:18.357Z,18.43
2023-04-29T07:18:46.465Z,18.33
2023-04-29T07:21:14.468Z,17.53
2023-04-29T07:23:43.965Z,13.23
2023-04-29T07:26:13.229Z,13.93
2023-04-29T07:28:41.357Z,16.50
2023-04-29T07:31:09.589Z,14.60
2023-04-29T07:33:37.720Z,14.20
2023-04-29T07:36:07.376Z,17.00
2023-04-29T07:38:36.946Z,14.13
2023-04-29T07:41:06.485Z,16.87
2023-04-29T07:43:34.491Z,15.50
2023-04-29T07:46:02.507Z,15.53
2023-04-29T07:48:30.647Z,18.00
2023-04-29T07:50:58.609Z,16.07
2023-04-29T07:53:26.645Z,13.80
2023-04-29T07:55:54.603Z,18.47
2023-04-29T07:58:23.997Z,18.33
2023-04-29T08:00:52.122Z,15.80
2023-04-29T08:03:20.570Z,18.40
2023-04-29T08:05:48.870Z,17.47
2023-04-29T08:08:16.938Z,20.50
2023-04-29T08:10:44.977Z,21.73
2023-04-29T08:13:13.010Z,18.23
2023-04-29T08:15:42.423Z,19.50
2023-04-29T08:18:10.877Z,18.48
2023-04-29T08:20:38.817Z,22.10
2023-04-29T08:23:06.816Z,17.15
2023-04-29T08:25:34.848Z,20.42
2023-04-29T08:28:03.086Z,17.08
2023-04-29T08:30:31.167Z,17.15
2023-04-29T08:33:00.554Z,15.90
2023-04-29T08:35:28.614Z,15.95
2023-04-29T08:37:56.603Z,14.48
2023-04-29T08:40:24.747Z,15.73
2023-04-29T08:42:54.394Z,14.18
2023-04-29T08:45:26.019Z,11.07
2023-04-29T08:47:55.165Z,10.10
2023-04-29T08:50:25.869Z,13.70
2023-04-29T08:52:53.841Z,11.82
2023-04-29T08:55:21.925Z,10.52
2023-04-29T08:57:51.299Z,10.55
2023-04-29T09:00:20.615Z,9.27
2023-04-29T09:02:51.650Z,13.23
2023-04-29T09:05:20.036Z,9.23
2023-04-29T09:07:51.206Z,12.65
2023-04-29T09:10:20.033Z,9.52
2023-04-29T09:12:48.033Z,15.85
2023-04-29T09:15:16.269Z,14.90
2023-04-29T09:17:46.216Z,9.70
2023-04-29T09:20:31.028Z,10.63
2023-04-29T09:23:02.657Z,10.50
2023-04-29T09:25:31.539Z,13.50
2023-04-29T09:27:59.747Z,13.40
2023-04-29T09:30:28.031Z,12.68
2023-04-29T09:33:07.595Z,14.52
2023-04-29T09:35:36.350Z,12.38
2023-04-29T09:38:13.411Z,16.60
2023-04-29T09:40:57.598Z,15.80
2023-04-29T09:43:27.357Z,17.02
2023-04-29T09:45:55.652Z,17.65
2023-04-29T09:48:23.657Z,14.23
2023-04-29T09:51:02.686Z,18.45
2023-04-29T09:53:32.693Z,16.17
2023-04-29T09:56:02.404Z,13.32
2023-04-29T09:58:34.330Z,12.10
2023-04-29T10:01:03.588Z,14.57
2023-04-29T10:03:35.072Z,14.68
2023-04-29T10:06:05.093Z,13.93
2023-04-29T10:08:35.433Z,13.50
2023-04-29T10:11:06.040Z,14.93
2023-04-29T10:13:38.455Z,14.20
2023-04-29T10:16:27.266Z,13.77
2023-04-29T10:18:57.119Z,12.13
2023-04-29T10:21:29.781Z,15.85
2023-04-29T10:24:01.008Z,11.75
2023-04-29T10:26:32.047Z,14.43
2023-04-29T10:29:01.505Z,18.15
2023-04-29T10:31:30.182Z,16.20
2023-04-29T10:33:59.121Z,15.85
2023-04-29T10:36:28.653Z,13.63
2023-04-29T10:39:01.169Z,13.60
2023-04-29T10:41:35.683Z,14.02
2023-04-29T10:44:04.563Z,15.50
2023-04-29T10:46:32.759Z,16.55
2023-04-29T10:49:03.826Z,15.93
2023-04-29T10:51:33.688Z,17.27
2023-04-29T10:54:07.411Z,14.75
2023-04-29T10:56:43.676Z,16.92
2023-04-29T10:59:14.483Z,15.52
2023-04-29T11:01:44.775Z,14.00
2023-04-29T11:04:13.171Z,17.95
2023-04-29T11:06:43.590Z,20.35
2023-04-29T11:09:15.375Z,18.20
2023-04-29T11:12:01.608Z,16.35
2023-04-29T11:14:32.740Z,14.73
2023-04-29T11:17:03.068Z,16.50
2023-04-29T11:19:35.443Z,20.20
2023-04-29T11:22:12.229Z,17.25
2023-04-29T11:24:52.767Z,16.70
2023-04-29T11:27:25.288Z,20.73
2023-04-29T11:29:58.132Z,17.25
2023-04-29T11:32:27.017Z,16.27
2023-04-29T11:34:55.682Z,20.52
2023-04-29T11:37:25.922Z,15.55
2023-04-29T11:40:00.990Z,16.27
2023-04-29T11:42:29.539Z,14.95
2023-04-29T11:44:59.499Z,15.13
2023-04-29T11:47:29.776Z,12.60
2023-04-29T11:50:05.588Z,12.75
2023-04-29T11:52:34.024Z,10.27
2023-04-29T11:55:03.845Z,11.98
2023-04-29T11:57:32.229Z,12.57
2023-04-29T12:00:00.391Z,10.90
2023-04-29T12:02:31.883Z,12.00
2023-04-29T12:05:01.490Z,12.68
2023-04-29T12:07:30.372Z,11.38
2023-04-29T12:09:58.463Z,11.23
2023-04-29T12:12:29.228Z,10.60
2023-04-29T12:14:57.427Z,9.68
2023-04-29T12:17:26.074Z,12.10
2023-04-29T12:19:54.167Z,13.55
2023-04-29T12:22:22.215Z,9.45
2023-04-29T12:24:50.959Z,11.13
2023-04-29T12:27:19.388Z,11.85
2023-04-29T12:29:48.809Z,10.20
2023-04-29T12:32:19.221Z,11.98
2023-04-29T12:34:47.447Z,13.25
2023-04-29T12:37:16.812Z,14.70
2023-04-29T12:39:44.984Z,9.43
2023-04-29T12:42:17.106Z,8.23
2023-04-29T12:44:48.327Z,8.38
2023-04-29T12:47:17.640Z,7.85
2023-04-29T12:49:50.123Z,8.88
2023-04-29T12:52:18.089Z,7.78
2023-04-29T12:54:46.093Z,11.18
2023-04-29T12:57:14.468Z,6.90
2023-04-29T12:59:42.581Z,6.95
2023-04-29T13:02:12.467Z,7.22
2023-04-29T13:04:40.969Z,7.35
2023-04-29T13:07:09.714Z,7.45
2023-04-29T13:09:38.230Z,7.80
2023-04-29T13:12:09.528Z,6.68
2023-04-29T13:14:37.810Z,7.10
2023-04-29T13:17:06.359Z,8.05
2023-04-29T13:19:50.165Z,7.65
2023-04-29T13:22:19.099Z,9.32
2023-04-29T13:24:47.554Z,11.52
2023-04-29T13:27:15.618Z,9.73
2023-04-29T13:29:43.751Z,11.77
2023-04-29T13:32:11.914Z,12.38
2023-04-29T13:34:43.448Z,9.77
2023-04-29T13:37:11.871Z,10.45
2023-04-29T13:39:39.936Z,9.13
2023-04-29T13:42:08.999Z,9.02
2023-04-29T13:44:51.090Z,12.70
2023-04-29T13:47:25.505Z,12.27
2023-04-29T13:53:10.501Z,11.10
2023-04-29T13:56:11.485Z,9.95
2023-04-29T14:03:05.592Z,11.27
2023-04-29T14:05:35.215Z,9.48
2023-04-29T14:08:03.465Z,9.43
2023-04-29T14:10:31.540Z,8.65
2023-04-29T14:12:59.532Z,10.27
2023-04-29T14:15:27.539Z,7.63
2023-04-29T14:17:55.712Z,8.05
2023-04-29T14:20:23.779Z,12.90
2023-04-29T14:22:53.159Z,9.85
2023-04-29T14:25:21.133Z,7.90
2023-04-29T14:27:49.582Z,9.25
2023-04-29T14:30:17.941Z,8.75
2023-04-29T14:32:46.434Z,8.32
2023-04-29T14:35:15.172Z,8.55
2023-04-29T14:37:43.205Z,8.98
2023-04-29T14:40:13.035Z,9.50
2023-04-29T14:42:41.201Z,7.65
2023-04-29T14:45:10.325Z,9.30
2023-04-29T14:47:38.885Z,9.10
2023-04-29T14:50:08.302Z,9.80
2023-04-29T14:52:36.244Z,9.35
2023-04-29T14:55:04.670Z,13.07
2023-04-29T14:57:34.026Z,10.20
2023-04-29T15:00:02.092Z,11.93
2023-04-29T15:02:30.052Z,11.30
2023-04-29T15:04:58.547Z,10.57
2023-04-29T15:07:26.528Z,10.90
2023-04-29T15:09:55.936Z,12.70
2023-04-29T15:12:24.003Z,11.43
2023-04-29T15:14:53.647Z,10.57
2023-04-29T15:17:21.984Z,13.00
2023-04-29T15:19:50.012Z,12.55
2023-04-29T15:22:18.178Z,12.35
2023-04-29T15:27:16.124Z,12.48
2023-04-29T15:29:44.097Z,10.43
2023-04-29T15:32:13.721Z,9.63
2023-04-29T15:34:42.027Z,9.50
2023-04-29T15:37:09.960Z,13.75
2023-04-29T15:39:37.935Z,13.73
2023-04-29T15:42:06.050Z,11.02
2023-04-29T15:44:34.211Z,13.15
2023-04-29T15:47:02.255Z,11.55
2023-04-29T15:49:31.724Z,10.00
2023-04-29T15:51:59.689Z,10.27
2023-04-29T15:54:27.737Z,11.77
2023-04-29T15:56:56.830Z,11.63
2023-04-29T15:59:24.861Z,10.77
2023-04-29T16:01:53.327Z,10.05
2023-04-29T16:04:21.278Z,11.65
2023-04-29T16:06:51.187Z,10.85
2023-04-29T16:09:19.164Z,10.82
2023-04-29T16:11:47.297Z,12.27
2023-04-29T16:14:15.348Z,12.10
2023-04-29T16:16:43.422Z,13.95
2023-04-29T16:19:11.469Z,24.50
2023-04-29T16:21:39.941Z,19.83
2023-04-29T16:24:09.259Z,21.20
2023-04-29T16:26:38.593Z,19.60
2023-04-29T16:29:06.692Z,19.80
2023-04-29T16:31:34.771Z,20.08
2023-04-29T16:34:03.306Z,23.35
2023-04-29T16:36:32.670Z,19.17
2023-04-29T16:39:00.684Z,19.88
2023-04-29T16:41:30.109Z,18.77
2023-04-29T16:43:58.537Z,17.23
2023-04-29T16:46:26.789Z,16.65
2023-04-29T16:48:56.799Z,13.55
2023-04-29T16:51:26.310Z,15.45
2023-04-29T16:53:54.691Z,14.40
2023-04-29T16:56:22.784Z,15.40
2023-04-29T16:58:53.266Z,16.80
2023-04-29T17:01:21.492Z,14.80
2023-04-29T17:03:50.122Z,15.80
2023-04-29T17:06:18.385Z,14.70
2023-04-29T17:08:47.501Z,14.87
2023-04-29T17:11:18.270Z,13.80
2023-04-29T17:13:46.415Z,14.70
2023-04-29T17:16:15.782Z,14.20
2023-04-29T17:18:43.813Z,14.13
2023-04-29T17:21:11.800Z,15.10
2023-04-29T17:23:39.770Z,15.60
2023-04-29T17:26:08.155Z,16.13
2023-04-29T17:28:36.700Z,15.00
2023-04-29T17:31:06.195Z,13.25
2023-04-29T17:33:35.736Z,13.98
2023-04-29T17:36:04.715Z,13.63
2023-04-29T17:38:33.752Z,12.27
2023-04-29T17:41:02.232Z,13.47
2023-04-29T17:43:33.189Z,12.73
2023-04-29T17:46:01.241Z,13.03
2023-04-29T17:48:29.220Z,14.57
2023-04-29T17:50:58.572Z,13.40
2023-04-29T17:53:28.597Z,13.60
2023-04-29T17:55:56.860Z,13.57
2023-04-29T17:58:24.836Z,12.30
2023-04-29T18:00:53.036Z,12.63
2023-04-29T18:03:21.249Z,13.90
2023-04-29T18:05:49.289Z,12.13
2023-04-29T18:08:18.649Z,13.73
2023-04-29T18:10:46.677Z,12.37
2023-04-29T18:13:14.686Z,12.70
2023-04-29T18:15:42.883Z,13.53
2023-04-29T18:18:10.849Z,12.93
2023-04-29T18:20:40.472Z,13.47
2023-04-29T18:23:08.504Z,13.05
2023-04-29T18:25:39.317Z,15.13
2023-04-29T18:30:41.572Z,18.83
2023-04-29T18:33:09.567Z,16.57
2023-04-29T18:35:37.914Z,15.70
2023-04-29T18:38:06.090Z,17.93
2023-04-29T18:40:36.173Z,20.20
2023-04-29T18:43:05.527Z,17.27
2023-04-29T18:45:33.523Z,19.08
2023-04-29T18:48:05.543Z,15.30
2023-04-29T18:50:33.829Z,18.83
2023-04-29T18:53:02.034Z,19.50
2023-04-29T18:55:30.617Z,20.17
2023-04-29T18:57:58.671Z,19.33
2023-04-29T19:00:28.095Z,19.60
2023-04-29T19:02:56.496Z,18.75
2023-04-29T19:05:24.791Z,20.85
2023-04-29T19:07:52.804Z,19.90
2023-04-29T19:10:20.951Z,22.30
2023-04-29T19:12:48.955Z,26.15
2023-04-29T19:15:17.714Z,26.27
2023-04-29T19:17:47.056Z,24.98
2023-04-29T19:20:15.239Z,28.40
2023-04-29T19:22:43.237Z,28.02
2023-04-29T19:25:11.388Z,26.10
2023-04-29T19:27:40.728Z,24.92
2023-04-29T19:30:10.121Z,25.97
2023-04-29T19:32:38.190Z,25.13
2023-04-29T19:35:08.422Z,24.23
2023-04-29T19:37:36.454Z,23.63
2023-04-29T19:40:04.757Z,25.07
2023-04-29T19:42:32.841Z,25.40
2023-04-29T19:45:00.858Z,24.93
2023-04-29T19:47:28.818Z,24.50
2023-04-29T19:49:56.982Z,24.47
2023-04-29T19:52:26.811Z,24.93
2023-04-29T19:54:54.790Z,22.23
2023-04-29T19:57:22.794Z,21.17
2023-04-29T19:59:50.770Z,16.37
2023-04-29T20:02:19.206Z,17.03
2023-04-29T20:04:48.256Z,15.17
2023-04-29T20:07:16.280Z,14.73
2023-04-29T20:09:45.886Z,12.97
2023-04-29T20:12:13.899Z,12.73
2023-04-29T20:14:41.911Z,12.17
2023-04-29T20:17:09.956Z,8.83
2023-04-29T20:19:37.961Z,9.47
2023-04-29T20:22:06.008Z,11.00
2023-04-29T20:24:33.988Z,12.03
2023-04-29T20:27:04.454Z,10.40
2023-04-29T20:29:32.644Z,10.20
2023-04-29T20:32:00.760Z,12.10
2023-04-29T20:34:28.823Z,11.87
2023-04-29T20:36:56.808Z,12.20
2023-04-29T20:39:25.977Z,14.60
2023-04-29T20:41:56.209Z,12.77
2023-04-29T20:44:25.643Z,13.60
2023-04-29T20:46:54.226Z,14.17
2023-04-29T20:49:22.376Z,14.00
2023-04-29T20:51:50.348Z,14.50
2023-04-29T20:54:18.272Z,13.60
2023-04-29T20:56:46.327Z,13.23
2023-04-29T20:59:14.340Z,13.80
2023-04-29T21:01:45.490Z,15.70
2023-04-29T21:04:13.575Z,15.87
2023-04-29T21:06:41.659Z,18.07
2023-04-29T21:09:10.253Z,19.73
2023-04-29T21:11:38.394Z,24.00
2023-04-29T21:14:06.388Z,19.87
2023-04-29T21:16:34.379Z,22.90
2023-04-29T21:19:03.734Z,19.83
2023-04-29T21:21:31.825Z,22.47
2023-04-29T21:23:59.801Z,22.23
2023-04-29T21:26:27.813Z,28.00
2023-04-29T21:28:55.822Z,23.43
2023-04-29T21:31:23.866Z,23.10
2023-04-29T21:33:51.916Z,30.73
2023-04-29T21:36:21.713Z,27.73
2023-04-29T21:38:49.830Z,25.40
2023-04-29T21:41:22.703Z,29.37
2023-04-29T21:43:51.671Z,31.17
2023-04-29T21:46:20.748Z,26.20
2023-04-29T21:48:48.992Z,26.67
2023-04-29T21:51:18.924Z,27.17
2023-04-29T21:53:48.351Z,24.30
2023-04-29T21:56:16.448Z,32.87
2023-04-29T21:58:44.872Z,30.10
2023-04-29T22:01:26.604Z,30.23
2023-04-29T22:03:54.715Z,26.93
2023-04-29T22:06:22.876Z,26.33
2023-04-29T22:08:52.327Z,25.20
2023-04-29T22:11:21.539Z,25.43
2023-04-29T22:13:49.647Z,22.37
2023-04-29T22:16:18.739Z,20.27
2023-04-29T22:18:46.763Z,20.10
2023-04-29T22:21:14.787Z,20.50
2023-04-29T22:23:43.646Z,20.97
2023-04-29T22:26:12.973Z,21.37
2023-04-29T22:28:40.967Z,19.23
2023-04-29T22:31:08.955Z,19.10
2023-04-29T22:33:37.145Z,18.53
2023-04-29T22:36:05.432Z,17.03
2023-04-29T22:38:34.974Z,19.27
2023-04-29T22:41:02.986Z,21.17
2023-04-29T22:43:32.316Z,21.57
2023-04-29T22:46:00.366Z,21.50
2023-04-29T22:48:28.657Z,21.13
2023-04-29T22:50:59.320Z,19.27
2023-04-29T22:53:27.499Z,23.50
2023-04-29T22:55:57.041Z,20.23
2023-04-29T22:58:26.422Z,24.97
2023-04-29T23:00:57.224Z,21.77
2023-04-29T23:03:25.620Z,23.13
2023-04-29T23:05:58.198Z,24.37
2023-04-29T23:08:26.312Z,22.93
2023-04-29T23:10:54.391Z,25.83
2023-04-29T23:13:22.398Z,26.60
2023-04-29T23:15:50.708Z,25.83
2023-04-29T23:18:20.042Z,25.47
2023-04-29T23:20:48.360Z,24.37
2023-04-29T23:23:16.411Z,28.07
2023-04-29T23:25:45.281Z,27.50
2023-04-29T23:28:14.080Z,28.33
2023-04-29T23:30:42.247Z,26.67
2023-04-29T23:33:10.291Z,30.50
2023-04-29T23:35:39.598Z,27.30
2023-04-29T23:38:07.687Z,28.83
2023-04-29T23:40:35.662Z,29.70
2023-04-29T23:43:03.813Z,28.30
2023-04-29T23:45:31.814Z,29.50
2023-04-29T23:47:59.878Z,29.03
2023-04-29T23:50:28.183Z,32.70
2023-04-29T23:52:57.592Z,29.23
2023-04-29T23:55:25.583Z,30.50
2023-04-29T23:57:53.621Z,31.30
